createdAt,value
2019-06-20T00:00:33.697Z,54.80
2019-06-20T00:03:05.720Z,54.55
2019-06-20T00:05:37.605Z,54.86
2019-06-20T00:08:08.286Z,54.60
2019-06-20T00:10:39.138Z,54.21
2019-06-20T00:13:09.885Z,54.83
2019-06-20T00:15:40.787Z,54.91
2019-06-20T00:18:11.560Z,54.56
2019-06-20T00:20:43.372Z,55.15
2019-06-20T00:23:14.142Z,55.10
2019-06-20T00:25:44.907Z,55.34
2019-06-20T00:28:15.593Z,54.91
2019-06-20T00:30:46.360Z,55.22
2019-06-20T00:33:17.039Z,55.74
2019-06-20T00:35:47.739Z,55.62
2019-06-20T00:38:18.430Z,55.78
2019-06-20T00:40:49.098Z,55.51
2019-06-20T00:43:19.796Z,55.84
2019-06-20T00:45:51.554Z,55.95
2019-06-20T00:48:22.297Z,55.96
2019-06-20T00:50:52.980Z,56.54
2019-06-20T00:53:23.740Z,56.55
2019-06-20T00:55:54.516Z,56.33
2019-06-20T00:58:25.709Z,56.70
2019-06-20T01:00:56.393Z,55.89
2019-06-20T01:03:27.114Z,55.43
2019-06-20T01:05:57.795Z,56.01
2019-06-20T01:08:30.389Z,55.82
2019-06-20T01:11:01.173Z,56.14
2019-06-20T01:13:34.238Z,56.16
2019-06-20T01:16:05.835Z,56.30
2019-06-20T01:18:36.519Z,56.06
2019-06-20T01:21:08.597Z,55.96
2019-06-20T01:23:39.287Z,56.03
2019-06-20T01:26:10.765Z,56.08
2019-06-20T01:28:41.658Z,56.09
2019-06-20T01:31:12.643Z,55.91
2019-06-20T01:33:43.355Z,55.92
2019-06-20T01:36:14.039Z,56.19
2019-06-20T01:38:44.827Z,56.28
2019-06-20T01:41:15.567Z,56.03
2019-06-20T01:43:50.408Z,56.08
2019-06-20T01:46:18.693Z,56.21
2019-06-20T01:48:49.388Z,56.07
2019-06-20T01:51:21.043Z,56.19
2019-06-20T01:53:53.601Z,56.36
2019-06-20T01:56:24.386Z,56.94
2019-06-20T01:58:55.309Z,57.50
2019-06-20T02:01:25.983Z,57.16
2019-06-20T02:03:57.897Z,57.17
2019-06-20T02:06:28.746Z,57.00
2019-06-20T02:08:59.528Z,57.09
2019-06-20T02:11:32.202Z,57.00
2019-06-20T02:14:07.257Z,57.01
2019-06-20T02:16:35.690Z,56.96
2019-06-20T02:19:06.587Z,56.42
2019-06-20T02:21:37.370Z,56.62
2019-06-20T02:24:08.081Z,56.52
2019-06-20T02:26:38.792Z,56.09
2019-06-20T02:29:09.462Z,56.08
2019-06-20T02:31:40.142Z,56.67
2019-06-20T02:34:10.828Z,56.96
2019-06-20T02:36:41.645Z,56.88
2019-06-20T02:39:12.315Z,57.10
2019-06-20T02:41:43.023Z,57.19
2019-06-20T02:44:29.024Z,56.97
2019-06-20T02:46:46.060Z,56.89
2019-06-20T02:49:16.914Z,57.13
2019-06-20T02:51:48.489Z,56.29
2019-06-20T02:54:19.303Z,56.40
2019-06-20T02:56:50.102Z,56.63
2019-06-20T02:59:20.777Z,57.17
2019-06-20T03:01:51.576Z,57.27
2019-06-20T03:04:22.367Z,56.98
2019-06-20T03:06:53.212Z,56.96
2019-06-20T03:09:23.977Z,56.96
2019-06-20T03:11:54.653Z,56.90
2019-06-20T03:14:25.342Z,56.58
2019-06-20T03:16:56.028Z,57.00
2019-06-20T03:19:26.714Z,57.58
2019-06-20T03:21:57.388Z,58.16
2019-06-20T03:24:28.062Z,58.08
2019-06-20T03:26:58.742Z,58.40
2019-06-20T03:29:29.864Z,58.20
2019-06-20T03:32:00.640Z,58.33
2019-06-20T03:34:31.403Z,57.67
2019-06-20T03:37:02.103Z,57.05
2019-06-20T03:39:33.566Z,57.02
2019-06-20T03:42:04.241Z,56.81
2019-06-20T03:44:35.311Z,57.00
2019-06-20T03:47:06.871Z,56.68
2019-06-20T03:49:40.371Z,57.10
2019-06-20T03:52:12.850Z,57.42
2019-06-20T03:54:45.421Z,57.42
2019-06-20T03:57:16.191Z,57.55
2019-06-20T03:59:46.934Z,57.18
2019-06-20T04:02:18.129Z,56.94
2019-06-20T04:04:52.694Z,57.03
2019-06-20T04:07:23.366Z,56.62
2019-06-20T04:09:54.059Z,56.38
2019-06-20T04:12:26.568Z,56.07
2019-06-20T04:14:59.241Z,56.38
2019-06-20T04:17:31.790Z,55.72
2019-06-20T04:20:02.715Z,55.58
2019-06-20T04:22:33.500Z,55.49
2019-06-20T04:25:05.899Z,55.70
2019-06-20T04:27:36.592Z,55.80
2019-06-20T04:30:08.991Z,55.62
2019-06-20T04:32:42.202Z,55.12
2019-06-20T04:35:13.192Z,54.39
2019-06-20T04:37:43.971Z,54.33
2019-06-20T04:40:15.909Z,53.84
2019-06-20T04:42:46.606Z,53.29
2019-06-20T04:45:34.230Z,52.70
2019-06-20T04:47:52.102Z,52.63
2019-06-20T04:50:22.768Z,51.89
2019-06-20T04:52:53.688Z,51.29
2019-06-20T04:55:24.468Z,50.84
2019-06-20T04:57:55.152Z,50.31
2019-06-20T05:00:26.002Z,50.03
2019-06-20T05:02:57.200Z,49.55
2019-06-20T05:05:27.965Z,49.92
2019-06-20T05:07:59.867Z,49.78
2019-06-20T05:10:30.686Z,49.29
2019-06-20T05:13:01.425Z,49.08
2019-06-20T05:15:32.125Z,49.21
2019-06-20T05:18:02.784Z,49.11
2019-06-20T05:20:34.522Z,48.49
2019-06-20T05:23:05.705Z,46.55
2019-06-20T05:25:36.458Z,45.48
2019-06-20T05:28:07.189Z,46.71
2019-06-20T05:30:38.033Z,46.37
2019-06-20T05:33:08.808Z,45.35
2019-06-20T05:35:39.542Z,40.72
2019-06-20T05:38:10.451Z,35.88
2019-06-20T05:40:41.275Z,33.20
2019-06-20T05:43:12.048Z,31.89
2019-06-20T05:45:46.191Z,29.68
2019-06-20T05:48:15.304Z,28.52
2019-06-20T05:50:45.984Z,27.63
2019-06-20T05:53:16.688Z,26.87
2019-06-20T05:55:47.391Z,26.79
2019-06-20T05:58:18.332Z,25.93
2019-06-20T06:00:49.084Z,25.15
2019-06-20T06:03:19.750Z,25.92
2019-06-20T06:05:50.435Z,26.01
2019-06-20T06:08:21.097Z,25.37
2019-06-20T06:10:51.843Z,24.43
2019-06-20T06:13:22.511Z,24.40
2019-06-20T06:15:53.191Z,24.26
2019-06-20T06:18:23.874Z,23.81
2019-06-20T06:20:54.587Z,23.52
2019-06-20T06:23:25.304Z,23.54
2019-06-20T06:25:58.790Z,23.30
2019-06-20T06:28:29.789Z,23.27
2019-06-20T06:31:00.573Z,22.85
2019-06-20T06:33:31.371Z,23.25
2019-06-20T06:36:02.045Z,23.11
2019-06-20T06:38:32.973Z,23.34
2019-06-20T06:41:03.630Z,23.11
2019-06-20T06:43:41.423Z,23.02
2019-06-20T06:46:07.751Z,22.28
2019-06-20T06:48:38.522Z,22.27
2019-06-20T06:51:09.741Z,22.69
2019-06-20T06:53:41.095Z,23.30
2019-06-20T06:56:12.653Z,22.81
2019-06-20T06:58:43.536Z,23.03
2019-06-20T07:01:14.224Z,22.72
2019-06-20T07:03:45.314Z,23.30
2019-06-20T07:06:19.310Z,23.22
2019-06-20T07:08:50.992Z,23.32
2019-06-20T07:11:22.633Z,23.19
2019-06-20T07:13:53.611Z,23.48
2019-06-20T07:16:26.129Z,23.52
2019-06-20T07:18:57.218Z,23.63
2019-06-20T07:21:28.378Z,23.54
2019-06-20T07:24:00.186Z,23.53
2019-06-20T07:26:33.761Z,23.90
2019-06-20T07:29:05.647Z,23.74
2019-06-20T07:31:36.950Z,23.14
2019-06-20T07:34:08.102Z,23.54
2019-06-20T07:36:38.979Z,23.92
2019-06-20T07:39:10.248Z,24.14
2019-06-20T07:41:41.365Z,23.60
2019-06-20T07:44:13.291Z,23.63
2019-06-20T07:46:44.594Z,23.48
2019-06-20T07:49:15.927Z,22.60
2019-06-20T07:51:46.974Z,23.21
2019-06-20T07:54:18.046Z,22.75
2019-06-20T07:56:49.114Z,22.91
2019-06-20T07:59:20.742Z,22.87
2019-06-20T08:01:52.022Z,22.64
2019-06-20T08:04:23.328Z,22.94
2019-06-20T08:06:54.375Z,23.18
2019-06-20T08:09:43.664Z,21.95
2019-06-20T08:11:59.541Z,22.68
2019-06-20T08:14:30.330Z,22.59
2019-06-20T08:17:01.325Z,22.42
2019-06-20T08:19:32.181Z,22.31
2019-06-20T08:22:03.041Z,22.77
2019-06-20T08:24:33.731Z,22.88
2019-06-20T08:27:04.943Z,22.09
2019-06-20T08:29:35.643Z,22.28
2019-06-20T08:32:06.645Z,22.45
2019-06-20T08:34:37.555Z,23.30
2019-06-20T08:37:08.226Z,22.54
2019-06-20T08:39:39.082Z,22.73
2019-06-20T08:42:09.933Z,23.11
2019-06-20T08:44:40.619Z,22.84
2019-06-20T08:47:11.485Z,22.24
2019-06-20T08:49:42.275Z,22.13
2019-06-20T08:52:13.448Z,22.28
2019-06-20T08:54:46.014Z,22.89
2019-06-20T08:57:16.801Z,22.29
2019-06-20T08:59:47.613Z,21.91
2019-06-20T09:02:18.452Z,20.92
2019-06-20T09:04:49.893Z,20.60
2019-06-20T09:07:20.840Z,21.26
2019-06-20T09:09:52.975Z,20.98
2019-06-20T09:12:25.841Z,21.05
2019-06-20T09:14:56.927Z,20.70
2019-06-20T09:17:29.851Z,20.37
2019-06-20T09:20:00.680Z,21.03
2019-06-20T09:22:31.647Z,20.16
2019-06-20T09:25:02.953Z,19.99
2019-06-20T09:27:33.734Z,20.60
2019-06-20T09:30:09.641Z,21.46
2019-06-20T09:32:41.085Z,21.25
2019-06-20T09:35:12.391Z,20.60
2019-06-20T09:37:43.212Z,21.23
2019-06-20T09:40:14.301Z,21.46
2019-06-20T09:42:44.986Z,21.22
2019-06-20T09:45:17.637Z,21.83
2019-06-20T09:47:50.414Z,21.57
2019-06-20T09:50:21.521Z,22.30
2019-06-20T09:52:53.702Z,21.83
2019-06-20T09:55:25.019Z,22.37
2019-06-20T09:57:58.657Z,21.96
2019-06-20T10:00:30.513Z,22.49
2019-06-20T10:03:01.617Z,23.17
2019-06-20T10:05:32.354Z,23.08
2019-06-20T10:08:03.134Z,22.53
2019-06-20T10:10:34.673Z,23.61
2019-06-20T10:13:05.749Z,22.68
2019-06-20T10:15:39.211Z,23.10
2019-06-20T10:18:12.763Z,23.53
2019-06-20T10:20:44.390Z,24.01
2019-06-20T10:23:16.767Z,23.72
2019-06-20T10:25:49.295Z,23.32
2019-06-20T10:28:20.215Z,23.36
2019-06-20T10:30:53.429Z,23.90
2019-06-20T10:33:25.658Z,24.60
2019-06-20T10:35:57.304Z,24.07
2019-06-20T10:38:28.389Z,24.42
2019-06-20T10:41:00.086Z,24.25
2019-06-20T10:43:31.221Z,25.23
2019-06-20T10:46:04.034Z,24.85
2019-06-20T10:48:34.791Z,25.03
2019-06-20T10:51:23.931Z,24.84
2019-06-20T10:53:55.014Z,24.93
2019-06-20T10:56:25.583Z,24.93
2019-06-20T10:58:56.525Z,24.16
2019-06-20T11:01:27.864Z,24.30
2019-06-20T11:04:00.649Z,23.89
2019-06-20T11:06:31.944Z,24.09
2019-06-20T11:09:02.618Z,24.37
2019-06-20T11:11:38.350Z,24.18
2019-06-20T11:14:14.032Z,23.94
2019-06-20T11:16:49.218Z,24.96
2019-06-20T11:19:20.377Z,24.45
2019-06-20T11:21:51.437Z,24.91
2019-06-20T11:24:23.967Z,25.40
2019-06-20T11:26:55.081Z,24.74
2019-06-20T11:29:27.006Z,24.39
2019-06-20T11:32:01.399Z,24.96
2019-06-20T11:34:37.697Z,25.60
2019-06-20T11:37:08.155Z,25.19
2019-06-20T11:39:38.985Z,25.48
2019-06-20T11:42:09.731Z,25.39
2019-06-20T11:44:40.886Z,25.12
2019-06-20T11:47:11.858Z,25.52
2019-06-20T11:49:42.611Z,25.62
2019-06-20T11:52:13.580Z,24.88
2019-06-20T11:54:44.575Z,25.63
2019-06-20T11:57:15.294Z,25.96
2019-06-20T11:59:46.225Z,25.77
2019-06-20T12:02:17.779Z,25.31
2019-06-20T12:04:49.148Z,25.76
2019-06-20T12:07:20.651Z,26.31
2019-06-20T12:09:51.426Z,26.35
2019-06-20T12:12:22.199Z,25.55
2019-06-20T12:14:53.780Z,26.20
2019-06-20T12:17:24.500Z,25.74
2019-06-20T12:19:55.156Z,24.81
2019-06-20T12:22:25.854Z,25.37
2019-06-20T12:24:57.739Z,24.94
2019-06-20T12:27:29.126Z,24.46
2019-06-20T12:29:59.868Z,24.92
2019-06-20T12:32:30.574Z,25.11
2019-06-20T12:35:01.857Z,25.49
2019-06-20T12:37:34.955Z,25.37
2019-06-20T12:40:09.884Z,25.95
2019-06-20T12:42:43.211Z,26.29
2019-06-20T12:45:15.946Z,26.59
2019-06-20T12:47:47.658Z,25.97
2019-06-20T12:50:19.647Z,25.84
2019-06-20T12:52:50.661Z,26.18
2019-06-20T12:55:22.072Z,26.20
2019-06-20T12:57:53.574Z,25.95
2019-06-20T13:00:25.272Z,26.37
2019-06-20T13:02:56.639Z,25.89
2019-06-20T13:05:28.155Z,24.96
2019-06-20T13:07:59.295Z,24.55
2019-06-20T13:10:30.000Z,24.78
2019-06-20T13:13:00.839Z,24.86
2019-06-20T13:15:31.757Z,25.25
2019-06-20T13:18:02.803Z,24.81
2019-06-20T13:20:35.483Z,24.88
2019-06-20T13:23:06.422Z,24.86
2019-06-20T13:25:37.726Z,24.46
2019-06-20T13:28:10.438Z,23.51
2019-06-20T13:30:46.886Z,24.37
2019-06-20T13:33:14.978Z,24.29
2019-06-20T13:35:46.714Z,23.29
2019-06-20T13:38:17.513Z,23.84
2019-06-20T13:40:49.380Z,23.73
2019-06-20T13:43:21.134Z,23.92
2019-06-20T13:45:52.615Z,26.27
2019-06-20T13:48:23.234Z,27.28
2019-06-20T13:50:53.928Z,27.56
2019-06-20T13:53:25.540Z,27.96
2019-06-20T13:55:56.459Z,27.99
2019-06-20T13:58:27.179Z,27.48
2019-06-20T14:00:57.863Z,27.36
2019-06-20T14:03:28.543Z,27.58
2019-06-20T14:06:00.469Z,27.58
2019-06-20T14:08:32.623Z,28.35
2019-06-20T14:11:03.536Z,28.96
2019-06-20T14:13:34.985Z,29.24
2019-06-20T14:16:06.617Z,29.00
2019-06-20T14:18:37.466Z,28.79
2019-06-20T14:21:10.477Z,28.91
2019-06-20T14:23:42.889Z,28.77
2019-06-20T14:26:14.481Z,29.21
2019-06-20T14:28:46.102Z,28.96
2019-06-20T14:31:16.970Z,29.01
2019-06-20T14:33:48.511Z,29.55
2019-06-20T14:36:21.628Z,29.11
2019-06-20T14:38:53.850Z,29.24
2019-06-20T14:41:24.770Z,29.37
2019-06-20T14:43:56.589Z,29.74
2019-06-20T14:46:27.267Z,33.08
2019-06-20T14:48:58.400Z,35.05
2019-06-20T14:51:29.354Z,37.35
2019-06-20T14:54:03.385Z,42.04
2019-06-20T14:56:34.250Z,45.98
2019-06-20T14:59:06.222Z,44.96
2019-06-20T15:01:36.930Z,44.56
2019-06-20T15:04:07.731Z,43.38
2019-06-20T15:06:39.574Z,45.07
2019-06-20T15:09:11.339Z,46.76
2019-06-20T15:11:45.807Z,46.19
2019-06-20T15:14:16.105Z,47.46
2019-06-20T15:16:48.333Z,47.93
2019-06-20T15:19:19.464Z,48.89
2019-06-20T15:21:50.254Z,48.28
2019-06-20T15:24:21.861Z,49.46
2019-06-20T15:26:52.632Z,49.32
2019-06-20T15:29:23.378Z,51.53
2019-06-20T15:31:54.820Z,51.30
2019-06-20T15:34:25.995Z,52.59
2019-06-20T15:36:57.802Z,54.85
2019-06-20T15:39:29.658Z,55.19
2019-06-20T15:42:00.443Z,54.07
2019-06-20T15:44:31.132Z,53.04
2019-06-20T15:47:03.017Z,53.15
2019-06-20T15:49:33.844Z,53.00
2019-06-20T15:52:07.463Z,54.05
2019-06-20T15:54:38.257Z,53.55
2019-06-20T15:57:09.048Z,52.37
2019-06-20T15:59:42.158Z,52.31
2019-06-20T16:02:12.863Z,51.66
2019-06-20T16:04:43.749Z,50.59
2019-06-20T16:07:14.679Z,49.02
2019-06-20T16:09:46.449Z,47.84
2019-06-20T16:12:17.975Z,47.77
2019-06-20T16:14:50.544Z,46.32
2019-06-20T16:17:21.311Z,46.84
2019-06-20T16:19:52.878Z,45.65
2019-06-20T16:22:23.947Z,45.87
2019-06-20T16:24:55.293Z,45.88
2019-06-20T16:27:26.719Z,45.74
2019-06-20T16:29:58.391Z,45.49
2019-06-20T16:32:29.187Z,45.92
2019-06-20T16:34:59.849Z,45.90
2019-06-20T16:37:30.720Z,46.04
2019-06-20T16:40:01.517Z,44.80
2019-06-20T16:42:33.298Z,45.27
2019-06-20T16:45:08.179Z,44.01
2019-06-20T16:47:39.501Z,44.29
2019-06-20T16:50:12.042Z,48.27
2019-06-20T16:52:43.927Z,49.22
2019-06-20T16:55:14.962Z,48.54
2019-06-20T16:57:45.751Z,47.62
2019-06-20T17:00:18.627Z,48.81
2019-06-20T17:02:49.833Z,47.86
2019-06-20T17:05:21.236Z,47.00
2019-06-20T17:07:52.412Z,46.68
2019-06-20T17:10:23.884Z,45.02
2019-06-20T17:12:55.294Z,47.30
2019-06-20T17:15:26.578Z,46.25
2019-06-20T17:17:58.273Z,47.01
2019-06-20T17:20:29.209Z,46.02
2019-06-20T17:23:00.368Z,46.02
2019-06-20T17:25:31.424Z,45.33
2019-06-20T17:28:03.517Z,45.69
2019-06-20T17:30:36.382Z,44.33
2019-06-20T17:33:07.938Z,43.41
2019-06-20T17:35:39.567Z,43.67
2019-06-20T17:38:10.393Z,41.65
2019-06-20T17:40:42.123Z,41.79
2019-06-20T17:43:13.591Z,42.06
2019-06-20T17:45:44.949Z,41.88
2019-06-20T17:48:16.217Z,41.88
2019-06-20T17:50:47.365Z,40.96
2019-06-20T17:53:18.259Z,39.33
2019-06-20T17:55:50.128Z,40.90
2019-06-20T17:58:21.199Z,39.74
2019-06-20T18:00:52.175Z,39.57
2019-06-20T18:03:23.602Z,40.64
2019-06-20T18:05:54.890Z,39.64
2019-06-20T18:08:25.958Z,39.15
2019-06-20T18:10:57.326Z,40.26
2019-06-20T18:13:28.159Z,38.80
2019-06-20T18:15:58.948Z,39.61
2019-06-20T18:18:29.619Z,39.04
2019-06-20T18:21:00.532Z,39.44
2019-06-20T18:23:31.632Z,39.28
2019-06-20T18:26:03.229Z,38.77
2019-06-20T18:28:34.474Z,39.58
2019-06-20T18:31:05.361Z,39.42
2019-06-20T18:33:36.437Z,39.15
2019-06-20T18:36:07.576Z,40.52
2019-06-20T18:38:38.613Z,39.06
2019-06-20T18:41:09.582Z,39.35
2019-06-20T18:43:40.517Z,39.06
2019-06-20T18:46:11.323Z,38.96
2019-06-20T18:48:42.014Z,39.02
2019-06-20T18:51:12.796Z,39.13
2019-06-20T18:53:43.962Z,39.13
2019-06-20T18:56:14.862Z,39.22
2019-06-20T18:58:45.571Z,40.61
2019-06-20T19:01:16.531Z,42.14
2019-06-20T19:03:47.608Z,42.16
2019-06-20T19:06:34.814Z,43.20
2019-06-20T19:08:51.193Z,44.00
2019-06-20T19:11:22.413Z,44.13
2019-06-20T19:13:53.625Z,44.75
2019-06-20T19:16:24.714Z,44.97
2019-06-20T19:19:01.089Z,46.63
2019-06-20T19:21:32.388Z,47.95
2019-06-20T19:24:03.311Z,48.81
2019-06-20T19:26:34.428Z,49.54
2019-06-20T19:29:05.707Z,51.08
2019-06-20T19:31:36.428Z,50.63
2019-06-20T19:34:07.638Z,51.06
2019-06-20T19:36:41.071Z,50.76
2019-06-20T19:39:11.598Z,50.68
2019-06-20T19:41:43.959Z,51.17
2019-06-20T19:44:15.883Z,51.03
2019-06-20T19:46:46.859Z,50.91
2019-06-20T19:49:19.475Z,52.04
2019-06-20T19:51:50.977Z,52.65
2019-06-20T19:54:22.119Z,53.66
2019-06-20T19:56:53.433Z,53.95
2019-06-20T19:59:24.495Z,53.59
2019-06-20T20:01:57.185Z,54.10
2019-06-20T20:04:28.637Z,52.97
2019-06-20T20:07:00.415Z,52.79
2019-06-20T20:09:31.330Z,53.33
2019-06-20T20:12:02.440Z,54.17
2019-06-20T20:14:33.328Z,54.25
2019-06-20T20:17:04.285Z,54.50
2019-06-20T20:19:39.759Z,54.74
2019-06-20T20:22:11.305Z,54.96
2019-06-20T20:24:42.359Z,56.00
2019-06-20T20:27:15.203Z,56.31
2019-06-20T20:29:46.253Z,56.72
2019-06-20T20:32:17.681Z,56.65
2019-06-20T20:34:49.080Z,57.07
2019-06-20T20:37:20.040Z,57.16
2019-06-20T20:39:51.361Z,57.49
2019-06-20T20:42:24.062Z,58.77
2019-06-20T20:44:55.461Z,58.07
2019-06-20T20:47:28.521Z,58.47
2019-06-20T20:50:00.663Z,58.64
2019-06-20T20:52:32.038Z,59.43
2019-06-20T20:55:07.635Z,59.48
2019-06-20T20:57:39.193Z,58.77
2019-06-20T21:00:13.770Z,59.14
2019-06-20T21:02:48.905Z,59.41
2019-06-20T21:05:20.290Z,58.81
2019-06-20T21:07:51.453Z,59.02
2019-06-20T21:10:22.993Z,58.50
2019-06-20T21:12:54.286Z,59.14
2019-06-20T21:15:25.740Z,59.04
2019-06-20T21:17:56.516Z,58.50
2019-06-20T21:20:29.358Z,59.45
2019-06-20T21:23:01.235Z,58.79
2019-06-20T21:25:32.866Z,58.80
2019-06-20T21:28:03.711Z,59.52
2019-06-20T21:30:34.507Z,59.95
2019-06-20T21:33:05.326Z,60.01
2019-06-20T21:35:35.991Z,60.05
2019-06-20T21:38:06.751Z,59.38
2019-06-20T21:40:38.002Z,59.69
2019-06-20T21:43:09.487Z,59.85
2019-06-20T21:45:41.005Z,59.96
2019-06-20T21:48:12.305Z,60.40
2019-06-20T21:50:44.278Z,60.50
2019-06-20T21:53:15.169Z,60.77
2019-06-20T21:55:45.868Z,60.42
2019-06-20T21:58:16.975Z,60.45
2019-06-20T22:00:50.793Z,60.53
2019-06-20T22:03:24.049Z,60.79
2019-06-20T22:05:54.982Z,61.52
2019-06-20T22:08:25.655Z,61.43
2019-06-20T22:10:56.488Z,61.22
2019-06-20T22:13:27.488Z,60.98
2019-06-20T22:15:58.338Z,60.53
2019-06-20T22:18:29.013Z,60.63
2019-06-20T22:20:59.867Z,60.64
2019-06-20T22:23:30.616Z,61.50
2019-06-20T22:26:01.313Z,61.23
2019-06-20T22:28:34.273Z,61.29
2019-06-20T22:31:05.301Z,60.97
2019-06-20T22:33:35.974Z,61.80
2019-06-20T22:36:06.782Z,62.02
2019-06-20T22:38:37.458Z,61.57
2019-06-20T22:41:08.118Z,61.08
2019-06-20T22:43:38.998Z,61.43
2019-06-20T22:46:09.666Z,61.74
2019-06-20T22:48:40.422Z,61.43
2019-06-20T22:51:13.779Z,60.58
2019-06-20T22:53:43.665Z,60.44
2019-06-20T22:56:14.586Z,60.51
2019-06-20T22:58:45.444Z,60.61
2019-06-20T23:01:16.130Z,61.05
2019-06-20T23:03:46.902Z,61.80
2019-06-20T23:06:17.677Z,62.07
2019-06-20T23:08:49.765Z,61.90
2019-06-20T23:11:20.618Z,61.84
2019-06-20T23:13:51.403Z,61.85
2019-06-20T23:16:22.307Z,61.67
2019-06-20T23:18:53.099Z,61.41
2019-06-20T23:21:23.767Z,61.52
2019-06-20T23:23:54.457Z,61.57
2019-06-20T23:26:25.262Z,61.76
2019-06-20T23:29:14.181Z,61.74
2019-06-20T23:31:44.858Z,61.56
2019-06-20T23:34:15.633Z,61.24
2019-06-20T23:36:46.477Z,61.40
2019-06-20T23:39:17.385Z,61.79
2019-06-20T23:41:48.172Z,61.59
2019-06-20T23:44:18.834Z,61.86
2019-06-20T23:46:49.619Z,62.08
2019-06-20T23:49:20.477Z,61.61
2019-06-20T23:52:07.850Z,61.49
2019-06-20T23:54:38.619Z,61.73
2019-06-20T23:57:09.319Z,62.04
2019-06-20T23:59:40.028Z,61.69
